Time;durP1;ratioP1;P1;durP2;ratioP2;P2;SDS_P1;SDS_P2;PMS_P1;PMS_P2;Temp;Humidity;BMP_temperature;BMP_pressure;BME280_temperature;BME280_humidity;BME280_pressure;Samples;Min_cycle;Max_cycle;Signal;HPM_P1;HPM_P2
2024/01/21 00:00:19;;;;;;;12.90;5.90;;;;;;;-0.43;82.58;102020.14;105587;1253;82108;-54
2024/01/21 00:03:08;;;;;;;8.80;5.70;;;;;;;-0.45;82.48;102020.27;105503;1255;71863;-52
2024/01/21 00:05:36;;;;;;;9.70;4.10;;;;;;;-0.45;82.49;102024.40;105552;1253;69193;-53
2024/01/21 00:08:05;;;;;;;12.50;6.30;;;;;;;-0.44;82.48;102026.98;105460;1253;69174;-52
2024/01/21 00:10:33;;;;;;;10.20;5.20;;;;;;;-0.43;82.51;102025.30;105630;1253;71938;-50
2024/01/21 00:13:01;;;;;;;9.50;4.90;;;;;;;-0.44;82.50;102021.86;105492;1253;81630;-49
2024/01/21 00:15:30;;;;;;;8.10;4.80;;;;;;;-0.42;82.44;102024.80;105507;1256;71589;-50
2024/01/21 00:17:58;;;;;;;11.30;5.70;;;;;;;-0.41;82.50;102025.55;105440;1254;70248;-51
2024/01/21 00:20:30;;;;;;;10.20;5.20;;;;;;;-0.40;82.34;102028.14;105602;1253;69741;-52
2024/01/21 00:22:58;;;;;;;12.30;5.80;;;;;;;-0.41;82.27;102028.98;105543;1253;74261;-49
2024/01/21 00:25:27;;;;;;;8.90;5.30;;;;;;;-0.41;82.30;102026.92;105527;1256;82391;-49
2024/01/21 00:27:55;;;;;;;11.70;5.50;;;;;;;-0.39;82.34;102033.84;105495;1253;71097;-53
2024/01/21 00:30:23;;;;;;;9.10;5.00;;;;;;;-0.40;82.21;102035.71;105577;1255;69932;-50
2024/01/21 00:32:52;;;;;;;8.40;5.00;;;;;;;-0.41;82.07;102038.09;105442;1255;69743;-52
2024/01/21 00:35:20;;;;;;;9.80;4.90;;;;;;;-0.38;82.24;102042.64;105491;1253;73840;-50
2024/01/21 00:37:48;;;;;;;9.60;4.90;;;;;;;-0.36;82.37;102038.41;105426;1253;81379;-51
2024/01/21 00:40:16;;;;;;;14.30;5.90;;;;;;;-0.37;82.48;102036.48;105463;1252;70903;-51
2024/01/21 00:42:45;;;;;;;11.40;5.80;;;;;;;-0.40;82.15;102033.13;105538;1255;69961;-50
2024/01/21 00:45:13;;;;;;;11.30;5.30;;;;;;;-0.41;82.02;102033.46;105466;1253;69945;-52
2024/01/21 00:47:41;;;;;;;7.40;5.00;;;;;;;-0.40;82.04;102034.16;105477;1253;72618;-52
2024/01/21 00:50:09;;;;;;;9.40;4.80;;;;;;;-0.40;81.84;102032.62;105441;1255;81421;-49
2024/01/21 00:52:38;;;;;;;10.90;5.20;;;;;;;-0.41;81.63;102033.79;105457;1253;72296;-49
2024/01/21 00:55:06;;;;;;;15.50;8.70;;;;;;;-0.46;81.40;102034.48;105459;1253;69869;-50
2024/01/21 00:57:34;;;;;;;9.80;5.90;;;;;;;-0.54;81.20;102039.36;105586;1253;69898;-49
2024/01/21 01:00:04;;;;;;;9.70;5.50;;;;;;;-0.61;80.96;102036.52;105472;1253;71700;-49
2024/01/21 01:02:32;;;;;;;8.70;4.70;;;;;;;-0.69;80.82;102034.39;105535;1253;82493;-51
2024/01/21 01:05:01;;;;;;;8.40;5.10;;;;;;;-0.75;80.82;102033.30;105529;1256;71676;-50
2024/01/21 01:07:29;;;;;;;10.10;4.70;;;;;;;-0.83;80.66;102033.86;105571;1253;69937;-49
2024/01/21 01:09:58;;;;;;;6.80;4.40;;;;;;;-0.91;80.39;102038.38;105539;1256;69875;-54
2024/01/21 01:12:26;;;;;;;7.10;4.20;;;;;;;-0.99;80.38;102041.87;105639;1253;73257;-51
2024/01/21 01:14:55;;;;;;;8.10;4.50;;;;;;;-1.05;80.42;102038.21;105669;1254;83215;-54
2024/01/21 01:17:23;;;;;;;9.50;4.40;;;;;;;-1.13;80.34;102043.77;105516;1253;71669;-51
2024/01/21 01:19:51;;;;;;;7.70;4.40;;;;;;;-1.27;79.74;102048.21;105449;1253;69121;-51
2024/01/21 01:22:19;;;;;;;12.00;6.00;;;;;;;-1.42;79.68;102048.70;105556;1256;69926;-49
2024/01/21 01:24:48;;;;;;;26.00;9.70;;;;;;;-1.53;79.80;102043.27;105467;1254;72286;-49
2024/01/21 01:27:16;;;;;;;19.50;7.80;;;;;;;-1.61;80.05;102036.96;105454;1256;81653;-49
2024/01/21 01:29:44;;;;;;;24.40;10.30;;;;;;;-1.68;80.27;102043.41;105451;1255;72049;-49
2024/01/21 01:32:12;;;;;;;37.50;15.10;;;;;;;-1.74;80.27;102043.80;105497;1256;69936;-50
2024/01/21 01:34:41;;;;;;;17.70;9.10;;;;;;;-1.85;80.30;102045.13;105464;1253;69993;-48
2024/01/21 01:37:11;;;;;;;20.90;9.00;;;;;;;-1.91;80.55;102045.36;105507;1256;72615;-49
2024/01/21 01:39:39;;;;;;;19.30;8.80;;;;;;;-1.95;80.68;102051.02;105513;1263;81493;-49
2024/01/21 01:42:07;;;;;;;11.80;6.80;;;;;;;-2.08;80.08;102052.73;105467;1253;71297;-49
2024/01/21 01:44:40;;;;;;;11.90;6.20;;;;;;;-2.22;79.97;102052.36;105525;1253;69842;-49
2024/01/21 01:47:09;;;;;;;12.70;6.60;;;;;;;-2.29;80.53;102050.69;105537;1255;69942;-49
2024/01/21 01:49:39;;;;;;;12.80;6.60;;;;;;;-2.32;80.40;102053.98;105541;1254;71747;-48
2024/01/21 01:52:10;;;;;;;12.30;7.20;;;;;;;-2.42;80.44;102053.58;105480;1253;81361;-48
2024/01/21 01:54:39;;;;;;;15.30;8.50;;;;;;;-2.42;80.61;102058.35;105481;1253;71759;-51
2024/01/21 01:57:08;;;;;;;8.80;4.70;;;;;;;-2.49;80.32;102058.39;105477;1253;69954;-55
2024/01/21 01:59:38;;;;;;;16.10;7.50;;;;;;;-2.51;80.64;102059.18;105476;1255;69979;-56
2024/01/21 02:02:06;;;;;;;14.00;7.00;;;;;;;-2.58;80.26;102057.52;105586;1256;70646;-57
2024/01/21 02:04:34;;;;;;;16.20;8.20;;;;;;;-2.67;80.11;102057.30;105481;1255;81735;-54
2024/01/21 02:07:03;;;;;;;10.90;5.80;;;;;;;-2.75;80.05;102056.58;105499;1255;71444;-55
2024/01/21 02:09:31;;;;;;;11.20;5.90;;;;;;;-2.81;80.06;102055.98;105436;1253;69115;-55
2024/01/21 02:11:59;;;;;;;16.30;7.40;;;;;;;-2.91;79.97;102060.68;105541;1253;69135;-55
2024/01/21 02:14:27;;;;;;;9.90;5.40;;;;;;;-2.98;79.88;102058.00;105517;1253;72895;-56
2024/01/21 02:16:56;;;;;;;8.30;4.50;;;;;;;-3.00;80.15;102057.89;105475;1256;80596;-55
2024/01/21 02:19:26;;;;;;;8.70;5.00;;;;;;;-3.07;79.80;102059.11;105462;1253;71828;-56
2024/01/21 02:21:54;;;;;;;;;;;;;;;-3.17;79.68;102059.16;105518;1255;69191;-54
2024/01/21 02:24:30;;;;;;;8.30;4.70;;;;;;;-3.27;80.04;102056.68;105537;1253;69236;-55
2024/01/21 02:26:59;;;;;;;9.80;5.30;;;;;;;-3.34;79.99;102055.30;105554;1253;72333;-54
2024/01/21 02:29:28;;;;;;;9.90;5.00;;;;;;;-3.40;79.99;102058.27;105553;1255;81595;-55
2024/01/21 02:31:57;;;;;;;11.90;5.40;;;;;;;-3.47;80.04;102064.79;105563;1256;73003;-53
2024/01/21 02:34:26;;;;;;;10.10;6.10;;;;;;;-3.56;79.71;102063.84;105558;1256;69114;-54
2024/01/21 02:36:54;;;;;;;10.30;5.80;;;;;;;-3.60;79.99;102058.38;105595;1253;69184;-55
2024/01/21 02:39:22;;;;;;;9.90;4.90;;;;;;;-3.63;80.04;102055.85;105587;1254;72046;-53
2024/01/21 02:41:50;;;;;;;10.40;5.60;;;;;;;-3.65;80.14;102051.80;105471;1255;82806;-55
2024/01/21 02:44:19;;;;;;;10.10;4.80;;;;;;;-3.67;80.18;102057.86;105652;1256;72335;-54
2024/01/21 02:46:47;;;;;;;9.60;4.70;;;;;;;-3.78;79.71;102057.02;105457;1255;69112;-59
2024/01/21 02:49:16;;;;;;;11.90;5.00;;;;;;;-3.87;79.70;102061.67;105663;1255;69180;-56
2024/01/21 02:51:45;;;;;;;10.20;4.50;;;;;;;-3.92;79.97;102064.02;105606;1256;72015;-53
2024/01/21 02:54:13;;;;;;;14.40;5.40;;;;;;;-3.97;79.97;102061.38;105535;1256;81657;-54
2024/01/21 02:56:41;;;;;;;7.20;4.20;;;;;;;-3.97;80.27;102058.12;105672;1254;72432;-52
2024/01/21 02:59:09;;;;;;;9.20;4.60;;;;;;;-4.01;80.23;102056.42;105493;1256;69147;-55
2024/01/21 03:01:38;;;;;;;7.90;4.00;;;;;;;-4.07;80.06;102061.28;105514;1256;69186;-56
2024/01/21 03:04:11;;;;;;;7.90;4.00;;;;;;;-4.15;79.96;102063.42;105512;1255;71980;-55
2024/01/21 03:06:40;;;;;;;10.20;4.50;;;;;;;-4.22;80.15;102062.38;105517;1256;81288;-54
2024/01/21 03:09:08;;;;;;;12.00;5.10;;;;;;;-4.28;79.99;102062.60;105552;1256;71645;-56
2024/01/21 03:11:38;;;;;;;11.40;5.90;;;;;;;-4.33;80.03;102059.63;105540;1256;69126;-55
2024/01/21 03:14:07;;;;;;;11.80;5.40;;;;;;;-4.36;80.42;102060.15;105530;1255;69067;-54
2024/01/21 03:16:35;;;;;;;15.50;5.40;;;;;;;-4.34;80.71;102065.03;105523;1253;72674;-55
2024/01/21 03:19:03;;;;;;;12.60;6.10;;;;;;;-4.35;80.71;102064.80;105531;1256;81447;-51
2024/01/21 03:21:32;;;;;;;11.20;4.80;;;;;;;-4.35;80.62;102063.45;105577;1257;73488;-54
2024/01/21 03:24:00;;;;;;;9.80;4.90;;;;;;;-4.38;80.61;102064.66;105562;1257;69283;-55
2024/01/21 03:26:28;;;;;;;16.50;6.80;;;;;;;-4.48;80.29;102063.14;105595;1256;69267;-54
2024/01/21 03:28:57;;;;;;;11.90;6.00;;;;;;;-4.51;80.75;102057.02;105655;1255;72390;-55
2024/01/21 03:31:25;;;;;;;15.90;7.00;;;;;;;-4.53;80.54;102057.27;105576;1256;81334;-55
2024/01/21 03:33:53;;;;;;;18.20;8.00;;;;;;;-4.64;80.32;102060.45;105547;1256;71638;-54
2024/01/21 03:36:22;;;;;;;16.90;6.70;;;;;;;-4.65;80.76;102066.48;105580;1264;69154;-55
2024/01/21 03:38:50;;;;;;;13.10;6.70;;;;;;;-4.66;80.68;102070.53;105570;1253;69276;-56
2024/01/21 03:41:19;;;;;;;11.60;5.50;;;;;;;-4.65;81.10;102076.21;105556;1253;72570;-54
2024/01/21 03:43:47;;;;;;;10.60;5.10;;;;;;;-4.64;81.13;102072.53;105539;1255;81933;-56
2024/01/21 03:46:17;;;;;;;13.10;6.80;;;;;;;-4.55;81.86;102062.79;105518;1257;72949;-55
2024/01/21 03:48:45;;;;;;;13.60;6.40;;;;;;;-4.44;82.05;102062.64;105496;1255;69118;-55
2024/01/21 03:51:13;;;;;;;15.00;6.40;;;;;;;-4.33;82.35;102062.86;105499;1256;69188;-55
2024/01/21 03:53:42;;;;;;;10.60;5.50;;;;;;;-4.27;82.14;102060.45;105509;1256;72172;-56
2024/01/21 03:56:20;;;;;;;13.10;6.20;;;;;;;-4.22;82.10;102055.36;105645;1256;81698;-54
2024/01/21 03:58:48;;;;;;;15.10;6.10;;;;;;;-4.26;81.36;102058.92;105481;1257;72461;-55
2024/01/21 04:01:17;;;;;;;12.70;6.40;;;;;;;-4.34;81.52;102056.34;105442;1256;69068;-54
2024/01/21 04:03:46;;;;;;;12.40;5.90;;;;;;;-4.34;81.55;102055.98;105549;1256;69187;-56
2024/01/21 04:06:14;;;;;;;13.50;6.20;;;;;;;-4.34;81.64;102051.02;105471;1254;72240;-52
2024/01/21 04:08:43;;;;;;;11.50;5.60;;;;;;;-4.29;82.09;102045.81;105544;1255;81178;-55
2024/01/21 04:11:11;;;;;;;11.90;5.70;;;;;;;-4.27;81.85;102037.91;105505;1266;71041;-53
2024/01/21 04:13:39;;;;;;;12.20;5.60;;;;;;;-4.36;81.27;102040.54;105469;1256;69157;-52
2024/01/21 04:16:08;;;;;;;11.90;5.40;;;;;;;-4.48;80.69;102036.70;105565;1256;69092;-56
2024/01/21 04:18:36;;;;;;;12.00;6.30;;;;;;;-4.62;80.35;102036.34;105517;1256;72806;-54
2024/01/21 04:21:04;;;;;;;12.70;6.30;;;;;;;-4.71;80.81;102042.15;105507;1256;81708;-55
2024/01/21 04:23:33;;;;;;;13.70;5.90;;;;;;;-4.74;80.72;102042.55;105546;1257;71953;-57
2024/01/21 04:26:01;;;;;;;11.40;5.10;;;;;;;-4.84;80.66;102043.69;105542;1256;69109;-53
2024/01/21 04:28:29;;;;;;;11.00;5.80;;;;;;;-4.95;80.54;102044.34;105515;1258;69171;-56
2024/01/21 04:30:58;;;;;;;12.30;5.60;;;;;;;-5.02;80.66;102045.48;105557;1255;73174;-56
2024/01/21 04:33:26;;;;;;;10.30;5.20;;;;;;;-5.10;80.71;102043.02;105517;1255;81912;-56
2024/01/21 04:35:54;;;;;;;12.70;5.80;;;;;;;-5.19;80.60;102043.77;105462;1256;71686;-53
2024/01/21 04:38:23;;;;;;;13.40;6.30;;;;;;;-5.28;80.55;102041.38;105506;1256;69312;-55
2024/01/21 04:40:54;;;;;;;13.20;6.30;;;;;;;-5.30;81.31;102044.20;105590;1256;69177;-56
2024/01/21 04:43:24;;;;;;;17.40;7.20;;;;;;;-5.29;81.34;102046.12;105476;1253;73375;-56
2024/01/21 04:45:52;;;;;;;23.60;9.60;;;;;;;-5.33;81.28;102047.26;105541;1256;81806;-56
2024/01/21 04:48:21;;;;;;;24.00;9.90;;;;;;;-5.39;81.25;102047.27;105543;1255;71668;-54
2024/01/21 04:50:49;;;;;;;21.60;9.80;;;;;;;-5.41;81.86;102044.43;105447;1253;69097;-57
2024/01/21 04:53:17;;;;;;;20.20;9.40;;;;;;;-5.36;82.34;102042.46;105476;1255;69226;-54
2024/01/21 04:55:46;;;;;;;19.60;8.60;;;;;;;-5.35;82.31;102039.48;105543;1258;72979;-55
2024/01/21 04:58:14;;;;;;;25.30;9.00;;;;;;;-5.41;81.80;102038.68;105469;1256;82121;-52
2024/01/21 05:00:42;;;;;;;18.60;8.50;;;;;;;-5.47;81.88;102037.33;105512;1257;71557;-55
2024/01/21 05:03:10;;;;;;;17.00;7.80;;;;;;;-5.44;82.46;102032.88;105524;1265;69239;-53
2024/01/21 05:05:39;;;;;;;18.40;7.40;;;;;;;-5.33;83.06;102022.20;105506;1256;69235;-54
2024/01/21 05:08:07;;;;;;;18.20;7.80;;;;;;;-5.30;82.75;102015.20;105517;1258;72822;-55
2024/01/21 05:10:36;;;;;;;17.30;7.80;;;;;;;-5.23;83.21;102018.30;105490;1252;81392;-52
2024/01/21 05:13:04;;;;;;;19.40;9.10;;;;;;;-5.13;83.61;102015.26;105546;1256;71802;-54
2024/01/21 05:15:32;;;;;;;19.60;8.60;;;;;;;-5.07;83.49;102015.40;105569;1252;69150;-53
2024/01/21 05:18:01;;;;;;;19.20;8.30;;;;;;;-5.08;82.93;102020.66;105567;1266;69115;-54
2024/01/21 05:20:29;;;;;;;21.10;9.20;;;;;;;-5.15;82.68;102021.95;105549;1256;72698;-53
2024/01/21 05:22:59;;;;;;;32.50;12.00;;;;;;;-5.13;83.13;102024.29;105479;1259;81794;-53
2024/01/21 05:25:27;;;;;;;21.50;9.40;;;;;;;-5.07;83.41;102029.39;105561;1256;72918;-54
2024/01/21 05:27:56;;;;;;;20.70;8.60;;;;;;;-5.02;83.35;102029.64;105455;1257;69150;-53
2024/01/21 05:30:24;;;;;;;18.00;8.40;;;;;;;-4.98;83.30;102027.31;105513;1266;69199;-54
2024/01/21 05:32:52;;;;;;;21.50;8.70;;;;;;;-5.05;82.47;102029.81;105508;1257;74846;-52
2024/01/21 05:35:22;;;;;;;20.60;8.80;;;;;;;-5.11;82.50;102029.49;105487;1256;81480;-53
2024/01/21 05:37:51;;;;;;;18.60;8.70;;;;;;;-5.17;82.56;102029.56;105519;1257;71920;-54
2024/01/21 05:40:19;;;;;;;24.50;9.70;;;;;;;-5.18;82.70;102033.77;105548;1256;69236;-53
2024/01/21 05:42:47;;;;;;;21.80;9.40;;;;;;;-5.18;82.60;102036.96;105528;1258;69194;-51
2024/01/21 05:45:16;;;;;;;22.30;8.90;;;;;;;-5.23;82.37;102038.77;105506;1257;73286;-52
2024/01/21 05:47:44;;;;;;;17.50;7.50;;;;;;;-5.25;82.83;102040.85;105595;1256;82709;-51
2024/01/21 05:50:12;;;;;;;21.00;8.00;;;;;;;-5.14;83.70;102034.98;105590;1257;71894;-53
2024/01/21 05:52:41;;;;;;;17.20;7.20;;;;;;;-5.08;83.87;102033.07;105517;1254;69132;-52
2024/01/21 05:55:09;;;;;;;17.40;7.70;;;;;;;-5.01;84.11;102032.41;105563;1256;69938;-47
2024/01/21 05:57:37;;;;;;;22.20;9.50;;;;;;;-4.99;84.07;102028.11;105603;1255;75080;-53
2024/01/21 06:00:07;;;;;;;17.40;7.50;;;;;;;-4.92;84.09;102029.99;105577;1260;81363;-53
2024/01/21 06:02:42;;;;;;;16.50;7.30;;;;;;;-4.94;83.82;102028.88;105569;1258;71518;-54
2024/01/21 06:05:10;;;;;;;16.70;7.20;;;;;;;-4.90;84.24;102026.15;105540;1258;69919;-50
2024/01/21 06:07:39;;;;;;;20.20;8.20;;;;;;;-4.85;84.52;102030.67;105574;1256;69965;-49
2024/01/21 06:10:08;;;;;;;20.40;8.50;;;;;;;-4.86;83.94;102035.39;105465;1257;72757;-56
2024/01/21 06:12:36;;;;;;;28.60;11.80;;;;;;;-4.90;83.79;102036.38;105518;1255;81413;-48
2024/01/21 06:15:05;;;;;;;26.00;11.10;;;;;;;-4.95;83.48;102041.44;105556;1257;71405;-50
2024/01/21 06:17:33;;;;;;;61.20;23.70;;;;;;;-4.98;83.59;102045.71;105442;1257;69987;-49
2024/01/21 06:20:02;;;;;;;62.70;24.30;;;;;;;-5.03;83.42;102046.78;105459;1257;69999;-49
2024/01/21 06:22:33;;;;;;;54.00;20.80;;;;;;;-5.08;83.31;102047.88;105470;1258;73186;-48
2024/01/21 06:25:03;;;;;;;64.00;22.60;;;;;;;-5.11;83.28;102049.60;105496;1257;82063;-49
2024/01/21 06:27:31;;;;;;;23.30;10.70;;;;;;;-5.16;83.41;102045.10;105458;1257;70084;-48
2024/01/21 06:30:13;;;;;;;20.60;8.20;;;;;;;-5.10;84.42;102044.39;105409;1255;69996;-49
2024/01/21 06:32:42;;;;;;;22.90;10.00;;;;;;;-4.97;84.94;102043.90;105515;1257;69927;-50
2024/01/21 06:35:26;;;;;;;37.90;13.60;;;;;;;-4.94;84.70;102047.65;105557;1254;72955;-49
2024/01/21 06:37:55;;;;;;;303.60;98.00;;;;;;;-4.99;84.31;102045.65;105457;1260;81875;-51
2024/01/21 06:40:24;;;;;;;275.30;93.10;;;;;;;-4.94;84.84;102041.98;105499;1257;72128;-49
2024/01/21 06:42:52;;;;;;;127.40;45.60;;;;;;;-4.93;84.67;102038.14;105431;1258;70012;-51
2024/01/21 06:45:20;;;;;;;107.10;36.20;;;;;;;-4.95;84.41;102041.11;105457;1257;70014;-50
2024/01/21 06:47:49;;;;;;;83.10;28.70;;;;;;;-5.00;84.19;102045.61;105617;1255;74401;-52
2024/01/21 06:50:18;;;;;;;120.60;29.70;;;;;;;-5.02;84.17;102048.40;105560;1257;81909;-49
2024/01/21 06:52:48;;;;;;;81.70;21.80;;;;;;;-5.02;84.57;102040.54;105508;1255;71716;-49
2024/01/21 06:55:17;;;;;;;35.00;13.50;;;;;;;-5.01;84.40;102036.35;105490;1257;69977;-49
2024/01/21 06:57:45;;;;;;;23.80;10.60;;;;;;;-5.09;83.84;102041.36;105579;1257;69995;-49
2024/01/21 07:00:14;;;;;;;23.20;10.10;;;;;;;-5.19;83.66;102049.20;105466;1257;72851;-49
2024/01/21 07:02:43;;;;;;;37.50;15.60;;;;;;;-5.25;83.61;102055.50;105572;1257;83633;-49
2024/01/21 07:05:11;;;;;;;26.80;10.40;;;;;;;-5.31;83.66;102057.91;105603;1256;71845;-49
2024/01/21 07:07:39;;;;;;;25.70;10.70;;;;;;;-5.39;83.42;102062.27;105550;1257;69946;-49
2024/01/21 07:10:07;;;;;;;25.00;11.40;;;;;;;-5.47;83.51;102061.33;105480;1256;69993;-49
2024/01/21 07:12:36;;;;;;;87.30;31.40;;;;;;;-5.52;83.59;102058.67;105587;1253;72835;-50
2024/01/21 07:15:05;;;;;;;23.80;11.70;;;;;;;-5.51;83.82;102057.84;105542;1256;81147;-50
2024/01/21 07:17:33;;;;;;;27.20;13.00;;;;;;;-5.58;83.49;102060.74;105472;1266;71171;-48
2024/01/21 07:20:03;;;;;;;23.20;10.90;;;;;;;-5.63;83.65;102060.48;105450;1265;70009;-50
2024/01/21 07:22:31;;;;;;;25.80;11.20;;;;;;;-5.70;83.37;102059.39;105518;1255;70404;-49
2024/01/21 07:24:59;;;;;;;31.90;12.70;;;;;;;-5.77;83.32;102064.27;105493;1254;73606;-48
2024/01/21 07:27:31;;;;;;;34.90;14.40;;;;;;;-5.82;83.39;102065.19;105482;1257;81956;-48
2024/01/21 07:30:00;;;;;;;43.20;18.00;;;;;;;-5.83;83.54;102065.67;105445;1257;71524;-49
2024/01/21 07:32:28;;;;;;;48.20;19.90;;;;;;;-5.83;84.07;102062.91;105587;1254;70079;-49
2024/01/21 07:34:57;;;;;;;48.60;21.50;;;;;;;-5.81;84.12;102060.80;105474;1254;69895;-56
2024/01/21 07:37:25;;;;;;;53.90;21.60;;;;;;;-5.83;84.07;102062.41;105623;1255;72816;-51
2024/01/21 07:39:53;;;;;;;95.90;34.30;;;;;;;-5.81;84.17;102058.73;105613;1256;81719;-49
2024/01/21 07:42:22;;;;;;;81.80;30.60;;;;;;;-5.74;84.80;102059.64;105493;1254;73031;-48
2024/01/21 07:44:50;;;;;;;71.50;28.50;;;;;;;-5.70;84.80;102056.13;105595;1257;69912;-47
2024/01/21 07:47:18;;;;;;;69.80;26.50;;;;;;;-5.71;84.56;102056.23;105488;1259;70243;-51
2024/01/21 07:49:46;;;;;;;62.90;25.10;;;;;;;-5.70;84.56;102057.52;105576;1254;73082;-48
2024/01/21 07:52:16;;;;;;;78.30;26.40;;;;;;;-5.68;84.82;102058.79;105688;1255;81679;-48
2024/01/21 07:54:44;;;;;;;87.50;29.60;;;;;;;-5.57;85.88;102050.54;105557;1257;71943;-50
2024/01/21 07:57:13;;;;;;;73.20;26.50;;;;;;;-5.42;86.29;102044.73;105556;1251;69921;-47
2024/01/21 07:59:41;;;;;;;56.80;29.50;;;;;;;-5.30;86.67;102043.70;105620;1254;70188;-49
2024/01/21 08:02:09;;;;;;;68.70;33.50;;;;;;;-5.19;86.75;102046.11;105795;1254;74455;-49
2024/01/21 08:04:38;;;;;;;76.00;31.90;;;;;;;-5.10;86.88;102046.10;105583;1256;82524;-48
2024/01/21 08:07:06;;;;;;;80.70;31.20;;;;;;;-5.00;86.92;102044.06;105516;1255;71531;-48
2024/01/21 08:09:34;;;;;;;62.90;27.10;;;;;;;-4.89;87.08;102038.82;105693;1256;70009;-48
2024/01/21 08:12:03;;;;;;;61.30;25.60;;;;;;;-4.81;87.03;102039.63;105564;1256;70530;-49
2024/01/21 08:14:32;;;;;;;63.90;25.30;;;;;;;-4.73;87.01;102040.55;105580;1255;73319;-48
2024/01/21 08:17:02;;;;;;;53.50;22.50;;;;;;;-4.65;86.97;102033.95;105766;1254;81692;-48
2024/01/21 08:19:36;;;;;;;55.50;23.70;;;;;;;-4.57;87.00;102025.31;105479;1254;73911;-49
2024/01/21 08:22:07;;;;;;;51.60;23.60;;;;;;;-4.47;87.08;102027.36;105628;1256;70246;-48
2024/01/21 08:24:35;;;;;;;50.60;22.80;;;;;;;-4.37;87.02;102021.19;105686;1257;70037;-49
2024/01/21 08:27:06;;;;;;;68.70;27.00;;;;;;;-4.28;87.10;102021.31;105486;1255;72843;-51
2024/01/21 08:29:38;;;;;;;80.20;29.30;;;;;;;-4.18;87.10;102024.00;105576;1257;81512;-52
2024/01/21 08:32:07;;;;;;;86.30;36.30;;;;;;;-4.08;87.21;102020.58;105678;1256;72128;-47
2024/01/21 08:34:36;;;;;;;96.60;42.50;;;;;;;-3.97;87.26;102016.82;105710;1257;70006;-46
2024/01/21 08:37:05;;;;;;;82.20;37.50;;;;;;;-3.87;87.35;102010.33;105610;1254;69946;-47
2024/01/21 08:39:33;;;;;;;88.30;39.40;;;;;;;-3.75;87.30;102016.64;105644;1254;73814;-46
2024/01/21 08:42:03;;;;;;;50.90;23.50;;;;;;;-3.64;87.32;102015.64;105630;1254;82111;-46
2024/01/21 08:44:31;;;;;;;38.30;17.70;;;;;;;-3.52;87.33;102011.40;105594;1254;71102;-46
2024/01/21 08:46:59;;;;;;;40.40;20.70;;;;;;;-3.41;87.27;102004.59;105710;1256;70020;-47
2024/01/21 08:49:28;;;;;;;58.30;26.70;;;;;;;-3.29;87.25;102003.58;105527;1257;70003;-46
2024/01/21 08:51:56;;;;;;;70.90;27.60;;;;;;;-3.17;87.34;102000.85;105535;1257;71744;-46
2024/01/21 08:54:24;;;;;;;54.10;21.90;;;;;;;-3.04;87.28;102000.56;105648;1255;84354;-46
2024/01/21 08:56:53;;;;;;;45.10;19.30;;;;;;;-2.93;87.14;101998.48;105644;1254;72970;-49
2024/01/21 08:59:22;;;;;;;35.00;15.60;;;;;;;-2.78;87.05;102001.02;105601;1257;69760;-47
2024/01/21 09:01:50;;;;;;;25.60;12.70;;;;;;;-2.63;87.07;102001.66;105468;1255;69990;-45
2024/01/21 09:04:18;;;;;;;27.10;12.90;;;;;;;-2.46;86.93;101999.11;105444;1254;73152;-47
2024/01/21 09:06:48;;;;;;;22.90;12.30;;;;;;;-2.29;86.77;101994.35;105612;1257;81820;-46
2024/01/21 09:09:16;;;;;;;26.70;13.10;;;;;;;-2.10;86.73;101984.50;105544;1258;71789;-46
2024/01/21 09:11:47;;;;;;;29.80;15.20;;;;;;;-1.88;86.67;101974.76;105438;1257;69959;-48
2024/01/21 09:14:16;;;;;;;31.40;16.30;;;;;;;-1.65;86.62;101970.64;105871;1253;69884;-48
2024/01/21 09:16:44;;;;;;;41.20;19.80;;;;;;;-1.42;86.45;101968.10;105757;1254;71595;-47
2024/01/21 09:19:13;;;;;;;62.70;26.90;;;;;;;-1.17;86.22;101968.15;105544;1255;83361;-47
2024/01/21 09:21:41;;;;;;;50.20;22.00;;;;;;;-0.92;85.94;101974.86;105622;1257;71735;-46
2024/01/21 09:24:11;;;;;;;32.70;16.90;;;;;;;-0.67;86.02;101971.95;105714;1256;69950;-48
2024/01/21 09:26:39;;;;;;;33.80;15.70;;;;;;;-0.40;85.83;101969.42;105776;1254;69966;-47
2024/01/21 09:29:07;;;;;;;23.90;12.80;;;;;;;-0.08;85.82;101970.45;105590;1257;72823;-47
2024/01/21 09:31:35;;;;;;;25.90;13.40;;;;;;;0.22;85.52;101973.09;105625;1255;81307;-50
2024/01/21 09:34:03;;;;;;;35.80;16.80;;;;;;;0.53;85.28;101972.46;105719;1253;72534;-47
2024/01/21 09:36:34;;;;;;;26.90;14.40;;;;;;;0.87;85.32;101969.49;105867;1254;69882;-47
2024/01/21 09:39:04;;;;;;;26.40;13.40;;;;;;;1.21;84.99;101963.70;105773;1252;69859;-50
2024/01/21 09:41:39;;;;;;;29.70;15.60;;;;;;;1.42;84.43;101959.94;105639;1252;72971;-52
2024/01/21 09:44:07;;;;;;;31.20;15.70;;;;;;;1.56;84.11;101957.04;105542;1256;83031;-50
2024/01/21 09:46:35;;;;;;;22.10;10.70;;;;;;;1.59;83.63;101956.91;105455;1254;72060;-52
2024/01/21 09:49:04;;;;;;;19.80;9.70;;;;;;;1.57;83.13;101952.20;105451;1256;69900;-51
2024/01/21 09:51:32;;;;;;;20.60;12.10;;;;;;;1.51;82.82;101952.23;105612;1254;69743;-50
2024/01/21 09:54:04;;;;;;;25.00;14.40;;;;;;;1.47;82.61;101942.48;105680;1254;73592;-49
2024/01/21 09:56:34;;;;;;;30.70;15.10;;;;;;;1.46;82.84;101934.38;105584;1256;81714;-49
2024/01/21 09:59:03;;;;;;;29.40;15.30;;;;;;;1.47;82.55;101928.54;105684;1254;72127;-47
2024/01/21 10:01:32;;;;;;;29.00;14.90;;;;;;;1.48;82.58;101923.23;105584;1254;69914;-50
2024/01/21 10:04:00;;;;;;;33.60;15.70;;;;;;;1.48;82.44;101922.02;105702;1253;70011;-51
2024/01/21 10:06:28;;;;;;;26.60;13.60;;;;;;;1.46;82.27;101921.96;105563;1254;73393;-49
2024/01/21 10:09:16;;;;;;;19.90;10.30;;;;;;;1.47;82.26;101924.41;105567;1257;82585;-49
2024/01/21 10:11:50;;;;;;;21.20;9.60;;;;;;;1.48;82.11;101920.29;105440;1253;71536;-48
2024/01/21 10:14:18;;;;;;;17.80;8.50;;;;;;;1.47;81.99;101923.52;105453;1252;69970;-50
2024/01/21 10:16:47;;;;;;;19.60;9.10;;;;;;;1.46;82.06;101926.96;105535;1253;69992;-49
2024/01/21 10:19:27;;;;;;;18.80;9.50;;;;;;;1.49;82.11;101925.13;105531;1256;71893;-49
2024/01/21 10:22:09;;;;;;;13.60;7.60;;;;;;;1.54;82.03;101921.13;105603;1252;83791;-51
2024/01/21 10:24:38;;;;;;;17.20;8.60;;;;;;;1.62;82.22;101917.70;105544;1253;72348;-51
2024/01/21 10:27:08;;;;;;;18.20;9.40;;;;;;;1.69;82.34;101909.42;105637;1256;69942;-50
2024/01/21 10:29:38;;;;;;;22.50;11.50;;;;;;;1.76;82.42;101905.64;105606;1254;69958;-50
2024/01/21 10:32:07;;;;;;;22.70;12.80;;;;;;;1.83;82.12;101901.30;105645;1254;73107;-49
2024/01/21 10:34:37;;;;;;;28.30;14.00;;;;;;;1.87;82.14;101897.60;105690;1255;82091;-50
2024/01/21 10:37:05;;;;;;;34.30;19.70;;;;;;;1.92;81.90;101897.56;105592;1253;72407;-50
2024/01/21 10:39:36;;;;;;;33.60;14.30;;;;;;;1.99;81.72;101893.90;105533;1254;69872;-51
2024/01/21 10:42:05;;;;;;;49.90;17.60;;;;;;;2.07;81.77;101894.95;105576;1253;69844;-50
2024/01/21 10:44:35;;;;;;;32.90;10.50;;;;;;;2.16;81.50;101886.85;105576;1252;72821;-50
2024/01/21 10:47:05;;;;;;;25.50;11.80;;;;;;;2.23;81.48;101877.86;105631;1256;81564;-50
2024/01/21 10:49:33;;;;;;;20.40;9.60;;;;;;;2.31;81.44;101874.23;105655;1257;71021;-50
2024/01/21 10:52:02;;;;;;;61.80;20.50;;;;;;;2.35;81.08;101877.60;105608;1253;69910;-54
2024/01/21 10:54:31;;;;;;;53.20;19.50;;;;;;;2.41;81.19;101872.55;105493;1255;226765;-54
2024/01/21 10:57:00;;;;;;;47.40;18.50;;;;;;;2.51;80.71;101870.65;105672;1253;73337;-52
2024/01/21 10:59:30;;;;;;;108.10;35.20;;;;;;;2.59;80.69;101870.30;105479;1253;82639;-50
2024/01/21 11:02:01;;;;;;;66.80;24.70;;;;;;;2.63;80.61;101871.06;105604;1253;71568;-50
2024/01/21 11:04:29;;;;;;;65.50;21.80;;;;;;;2.65;80.10;101872.49;105566;1256;69924;-52
2024/01/21 11:07:01;;;;;;;43.30;13.60;;;;;;;2.66;79.81;101880.61;105561;1255;70371;-50
2024/01/21 11:09:32;;;;;;;25.50;9.60;;;;;;;2.69;79.82;101876.37;105587;1253;72916;-50
2024/01/21 11:12:02;;;;;;;21.10;9.30;;;;;;;2.73;79.67;101864.02;105476;1253;80682;-51
2024/01/21 11:14:35;;;;;;;74.00;24.60;;;;;;;2.77;79.52;101858.38;105673;1254;71975;-54
2024/01/21 11:17:10;;;;;;;63.90;23.00;;;;;;;2.83;79.27;101855.21;105589;1254;69303;-53